createdAt,value
2018-01-30T00:01:04.571Z,2.35
2018-01-30T00:03:35.615Z,2.05
2018-01-30T00:06:06.152Z,2.54
2018-01-30T00:08:37.838Z,2.46
2018-01-30T00:11:08.300Z,2.20
2018-01-30T00:13:38.992Z,2.85
2018-01-30T00:16:09.841Z,2.12
2018-01-30T00:18:40.713Z,3.25
2018-01-30T00:21:12.182Z,2.66
2018-01-30T00:23:41.834Z,2.28
2018-01-30T00:26:12.455Z,2.85
2018-01-30T00:28:43.436Z,3.28
2018-01-30T00:31:14.322Z,1.70
2018-01-30T00:33:45.400Z,3.30
2018-01-30T00:36:16.159Z,2.92
2018-01-30T00:38:47.541Z,2.90
2018-01-30T00:41:19.085Z,4.38
2018-01-30T00:43:50.040Z,4.85
2018-01-30T00:46:20.768Z,4.78
2018-01-30T00:48:51.649Z,2.80
2018-01-30T00:51:22.092Z,2.34
2018-01-30T00:53:52.874Z,1.62
2018-01-30T00:56:22.635Z,1.45
2018-01-30T00:58:53.265Z,3.08
2018-01-30T01:01:24.131Z,2.87
2018-01-30T01:03:55.469Z,1.46
2018-01-30T01:06:26.179Z,2.35
2018-01-30T01:08:57.947Z,1.20
2018-01-30T01:11:28.431Z,1.20
2018-01-30T01:13:59.296Z,2.78
2018-01-30T01:16:30.187Z,3.90
2018-01-30T01:19:01.876Z,1.18
2018-01-30T01:21:32.699Z,1.00
2018-01-30T01:24:03.685Z,1.15
2018-01-30T01:26:34.677Z,0.70
2018-01-30T01:29:05.272Z,1.02
2018-01-30T01:31:35.788Z,0.80
2018-01-30T01:34:06.867Z,1.02
2018-01-30T01:36:37.090Z,0.68
2018-01-30T01:39:07.400Z,0.60
2018-01-30T01:41:38.163Z,3.47
2018-01-30T01:44:09.560Z,4.10
2018-01-30T01:46:40.393Z,1.15
2018-01-30T01:49:11.206Z,0.90
2018-01-30T01:51:41.520Z,1.20
2018-01-30T01:54:12.895Z,1.27
2018-01-30T01:56:43.490Z,1.10
2018-01-30T01:59:15.109Z,1.26
2018-01-30T02:01:44.987Z,2.55
2018-01-30T02:04:17.483Z,1.62
2018-01-30T02:06:48.779Z,1.44
2018-01-30T02:09:19.258Z,2.88
2018-01-30T02:11:49.738Z,1.60
2018-01-30T02:14:20.352Z,1.96
2018-01-30T02:16:50.880Z,2.45
2018-01-30T02:19:21.403Z,1.28
2018-01-30T02:21:51.883Z,0.70
2018-01-30T02:24:22.903Z,0.70
2018-01-30T02:26:53.740Z,1.87
2018-01-30T02:29:24.615Z,0.82
2018-01-30T02:31:55.568Z,1.40
2018-01-30T02:34:27.147Z,2.54
2018-01-30T02:36:57.498Z,0.72
2018-01-30T02:39:28.287Z,1.86
2018-01-30T02:41:58.868Z,0.93
2018-01-30T02:44:29.826Z,1.50
2018-01-30T02:47:00.773Z,0.60
2018-01-30T02:49:31.739Z,0.90
2018-01-30T02:52:02.589Z,3.05
2018-01-30T02:54:34.194Z,2.40
2018-01-30T02:57:04.763Z,2.17
2018-01-30T02:59:35.675Z,2.15
2018-01-30T03:02:07.016Z,0.80
2018-01-30T03:04:37.881Z,1.60
2018-01-30T03:07:08.347Z,4.26
2018-01-30T03:09:38.960Z,1.67
2018-01-30T03:12:09.891Z,2.87
2018-01-30T03:14:40.808Z,1.62
2018-01-30T03:17:11.627Z,3.12
2018-01-30T03:19:40.958Z,3.17
2018-01-30T03:22:11.474Z,2.28
2018-01-30T03:24:42.118Z,1.62
2018-01-30T03:27:13.573Z,2.10
2018-01-30T03:29:44.977Z,3.16
2018-01-30T03:32:15.458Z,2.97
2018-01-30T03:34:46.156Z,1.60
2018-01-30T03:37:17.396Z,4.58
2018-01-30T03:39:47.872Z,4.03
2018-01-30T03:42:18.822Z,2.66
2018-01-30T03:44:49.249Z,2.82
2018-01-30T03:47:19.772Z,3.62
2018-01-30T03:49:50.802Z,5.43
2018-01-30T03:52:21.543Z,5.37
2018-01-30T03:54:53.208Z,4.26
2018-01-30T03:57:24.070Z,3.45
2018-01-30T03:59:55.642Z,5.02
2018-01-30T04:02:26.202Z,2.00
2018-01-30T04:04:57.176Z,5.55
2018-01-30T04:07:28.468Z,4.88
2018-01-30T04:09:59.380Z,7.95
2018-01-30T04:12:30.135Z,7.43
2018-01-30T04:15:01.528Z,3.30
2018-01-30T04:17:32.159Z,4.12
2018-01-30T04:20:03.182Z,5.00
2018-01-30T04:22:34.764Z,2.80
2018-01-30T04:25:05.679Z,3.92
2018-01-30T04:27:36.534Z,6.48
2018-01-30T04:30:07.584Z,7.06
2018-01-30T04:32:38.527Z,6.07
2018-01-30T04:35:09.073Z,7.70
2018-01-30T04:37:39.500Z,3.78
2018-01-30T04:40:10.518Z,4.18
2018-01-30T04:42:41.990Z,5.14
2018-01-30T04:45:11.211Z,5.97
2018-01-30T04:47:42.233Z,8.54
2018-01-30T04:50:13.747Z,9.52
2018-01-30T04:52:44.214Z,4.65
2018-01-30T04:55:16.199Z,7.28
2018-01-30T04:57:47.763Z,8.04
2018-01-30T05:00:19.253Z,3.52
2018-01-30T05:02:49.883Z,5.87
2018-01-30T05:05:19.105Z,5.18
2018-01-30T05:07:49.696Z,7.95
2018-01-30T05:10:19.696Z,5.12
2018-01-30T05:12:51.291Z,7.16
2018-01-30T05:15:22.143Z,6.10
2018-01-30T05:17:53.683Z,4.36
2018-01-30T05:20:24.212Z,7.40
2018-01-30T05:22:55.955Z,4.28
2018-01-30T05:25:26.496Z,8.45
2018-01-30T05:27:58.050Z,10.56
2018-01-30T05:30:28.549Z,6.68
2018-01-30T05:32:59.231Z,3.00
2018-01-30T05:35:29.417Z,8.57
2018-01-30T05:38:00.183Z,6.15
2018-01-30T05:40:32.763Z,7.15
2018-01-30T05:43:03.889Z,5.68
2018-01-30T05:45:34.753Z,6.55
2018-01-30T05:48:05.639Z,4.45
2018-01-30T05:50:36.391Z,3.67
2018-01-30T05:53:08.237Z,7.24
2018-01-30T05:55:38.930Z,6.62
2018-01-30T05:58:09.891Z,4.97
2018-01-30T06:00:40.987Z,9.50
2018-01-30T06:03:12.009Z,6.32
2018-01-30T06:05:42.863Z,3.72
2018-01-30T06:08:13.771Z,5.82
2018-01-30T06:10:45.326Z,7.44
2018-01-30T06:13:16.597Z,5.55
2018-01-30T06:15:47.764Z,7.30
2018-01-30T06:18:18.427Z,9.94
2018-01-30T06:20:48.927Z,8.30
2018-01-30T06:23:19.813Z,4.85
2018-01-30T06:25:50.706Z,9.30
2018-01-30T06:28:21.587Z,9.80
2018-01-30T06:30:51.600Z,5.66
2018-01-30T06:33:23.095Z,8.92
2018-01-30T06:35:53.795Z,10.00
2018-01-30T06:38:24.706Z,8.63
2018-01-30T06:40:55.597Z,6.85
2018-01-30T06:43:26.751Z,7.62
2018-01-30T06:45:57.623Z,10.07
2018-01-30T06:48:29.048Z,15.52
2018-01-30T06:50:59.285Z,5.32
2018-01-30T06:53:30.874Z,4.44
2018-01-30T06:56:01.358Z,7.92
2018-01-30T06:58:31.936Z,9.95
2018-01-30T07:01:02.791Z,7.18
2018-01-30T07:03:33.748Z,9.73
2018-01-30T07:06:04.609Z,8.45
2018-01-30T07:08:35.558Z,6.35
2018-01-30T07:11:07.009Z,7.80
2018-01-30T07:13:37.930Z,6.07
2018-01-30T07:16:08.439Z,8.02
2018-01-30T07:18:38.986Z,7.32
2018-01-30T07:21:09.555Z,6.37
2018-01-30T07:23:41.003Z,8.66
2018-01-30T07:26:12.186Z,5.90
2018-01-30T07:28:42.842Z,6.80
2018-01-30T07:31:13.700Z,10.63
2018-01-30T07:33:44.033Z,6.85
2018-01-30T07:36:14.536Z,9.88
2018-01-30T07:38:45.335Z,8.88
2018-01-30T07:41:16.203Z,8.00
2018-01-30T07:43:47.595Z,11.28
2018-01-30T07:46:18.873Z,6.06
2018-01-30T07:48:49.775Z,6.95
2018-01-30T07:51:20.619Z,9.10
2018-01-30T07:53:51.582Z,7.03
2018-01-30T07:56:22.510Z,5.22
2018-01-30T07:58:54.911Z,6.14
2018-01-30T08:01:25.472Z,9.02
2018-01-30T08:03:55.492Z,8.88
2018-01-30T08:06:25.920Z,6.35
2018-01-30T08:08:56.612Z,8.22
2018-01-30T08:11:26.984Z,8.30
2018-01-30T08:13:57.690Z,10.64
2018-01-30T08:16:28.212Z,8.46
2018-01-30T08:18:59.042Z,7.70
2018-01-30T08:21:29.893Z,8.77
2018-01-30T08:24:00.873Z,9.90
2018-01-30T08:26:31.714Z,3.70
2018-01-30T08:29:02.682Z,8.00
2018-01-30T08:31:33.577Z,6.82
2018-01-30T08:34:04.590Z,6.78
2018-01-30T08:36:35.591Z,6.15
2018-01-30T08:39:07.418Z,8.12
2018-01-30T08:41:37.931Z,6.87
2018-01-30T08:44:08.874Z,11.75
2018-01-30T08:46:39.996Z,6.80
2018-01-30T08:49:10.916Z,6.30
2018-01-30T08:51:41.744Z,5.35
2018-01-30T08:54:12.631Z,5.37
2018-01-30T08:56:44.491Z,7.75
2018-01-30T08:59:14.936Z,11.63
2018-01-30T09:01:45.769Z,4.45
2018-01-30T09:04:16.815Z,10.05
2018-01-30T09:06:47.682Z,7.20
2018-01-30T09:09:18.464Z,13.48
2018-01-30T09:11:47.914Z,6.93
2018-01-30T09:14:17.347Z,6.90
2018-01-30T09:16:47.508Z,5.43
2018-01-30T09:19:18.379Z,4.25
2018-01-30T09:21:49.760Z,9.22
2018-01-30T09:24:20.471Z,7.53
2018-01-30T09:26:51.963Z,7.92
2018-01-30T09:29:22.591Z,4.55
2018-01-30T09:31:53.539Z,5.00
2018-01-30T09:34:24.797Z,4.88
2018-01-30T09:36:55.627Z,6.72
2018-01-30T09:39:26.103Z,7.00
2018-01-30T09:41:56.353Z,5.60
2018-01-30T09:44:25.203Z,6.53
2018-01-30T09:46:54.354Z,4.87
2018-01-30T09:49:23.658Z,7.95
2018-01-30T09:51:52.951Z,8.10
2018-01-30T09:54:21.820Z,7.47
2018-01-30T09:56:50.807Z,4.53
2018-01-30T09:59:19.988Z,11.00
2018-01-30T10:01:48.227Z,8.90
2018-01-30T10:04:17.140Z,9.50
2018-01-30T10:06:45.997Z,6.10
2018-01-30T10:09:14.543Z,4.63
2018-01-30T10:11:43.748Z,4.62
2018-01-30T10:14:12.892Z,10.63
2018-01-30T10:16:41.863Z,5.67
2018-01-30T10:19:10.929Z,5.50
2018-01-30T10:21:39.661Z,10.83
2018-01-30T10:24:08.222Z,7.53
2018-01-30T10:26:37.127Z,6.70
2018-01-30T10:29:06.099Z,4.07
2018-01-30T10:31:35.225Z,5.47
2018-01-30T10:34:03.540Z,9.43
2018-01-30T10:36:32.672Z,11.80
2018-01-30T10:39:01.768Z,5.53
2018-01-30T10:41:30.911Z,8.20
2018-01-30T10:43:59.786Z,10.17
2018-01-30T10:46:38.177Z,8.70
2018-01-30T10:49:07.018Z,5.83
2018-01-30T10:51:35.916Z,8.67
2018-01-30T10:54:04.743Z,9.40
2018-01-30T10:56:33.850Z,8.40
2018-01-30T10:59:02.543Z,7.63
2018-01-30T11:01:31.671Z,5.05
2018-01-30T11:04:00.603Z,9.53
2018-01-30T11:06:29.490Z,4.97
2018-01-30T11:08:58.464Z,10.57
2018-01-30T11:11:27.353Z,9.17
2018-01-30T11:13:56.268Z,9.17
2018-01-30T11:16:25.203Z,7.80
2018-01-30T11:18:54.078Z,7.30
2018-01-30T11:21:22.972Z,7.27
2018-01-30T11:23:51.960Z,7.23
2018-01-30T11:26:20.823Z,5.90
2018-01-30T11:28:49.810Z,6.17
2018-01-30T11:31:18.792Z,6.23
2018-01-30T11:33:47.807Z,6.53
2018-01-30T11:36:17.022Z,5.37
2018-01-30T11:38:45.871Z,6.70
2018-01-30T11:41:14.844Z,3.90
2018-01-30T11:43:43.842Z,7.40
2018-01-30T11:46:12.897Z,5.50
2018-01-30T11:48:41.800Z,7.53
2018-01-30T11:51:10.995Z,7.90
2018-01-30T11:53:40.115Z,4.65
2018-01-30T11:56:09.023Z,11.03
2018-01-30T11:58:37.968Z,8.33
2018-01-30T12:01:06.974Z,7.47
2018-01-30T12:03:35.795Z,8.30
2018-01-30T12:06:04.916Z,5.03
2018-01-30T12:08:33.775Z,7.60
2018-01-30T12:11:02.690Z,8.47
2018-01-30T12:13:31.984Z,5.30
2018-01-30T12:16:00.976Z,10.87
2018-01-30T12:18:29.902Z,6.20
2018-01-30T12:20:58.856Z,6.27
2018-01-30T12:23:27.735Z,5.33
2018-01-30T12:25:56.740Z,6.03
2018-01-30T12:28:25.968Z,8.40
2018-01-30T12:30:54.868Z,7.53
2018-01-30T12:33:23.919Z,6.00
2018-01-30T12:35:52.897Z,7.60
2018-01-30T12:38:21.179Z,8.33
2018-01-30T12:40:50.041Z,9.63
2018-01-30T12:43:19.063Z,8.63
2018-01-30T12:45:47.811Z,5.43
2018-01-30T12:48:17.247Z,7.95
2018-01-30T12:50:46.636Z,9.00
2018-01-30T12:53:15.971Z,7.17
2018-01-30T12:55:45.377Z,7.68
2018-01-30T12:58:14.645Z,9.00
2018-01-30T13:00:43.928Z,6.00
2018-01-30T13:03:13.203Z,6.50
2018-01-30T13:05:42.461Z,9.52
2018-01-30T13:08:11.751Z,9.33
2018-01-30T13:10:42.415Z,7.40
2018-01-30T13:13:13.015Z,7.93
2018-01-30T13:15:44.179Z,5.62
2018-01-30T13:18:15.020Z,6.90
2018-01-30T13:20:46.183Z,7.96
2018-01-30T13:23:17.415Z,5.96
2018-01-30T13:25:47.669Z,7.80
2018-01-30T13:28:19.327Z,5.60
2018-01-30T13:30:49.390Z,6.47
2018-01-30T13:33:20.519Z,5.93
2018-01-30T13:35:51.155Z,6.40
2018-01-30T13:38:25.640Z,6.00
2018-01-30T13:40:55.427Z,8.17
2018-01-30T13:43:24.830Z,17.85
2018-01-30T13:45:55.605Z,5.08
2018-01-30T13:48:25.481Z,5.55
2018-01-30T13:50:56.348Z,7.57
2018-01-30T13:53:27.120Z,9.20
2018-01-30T13:55:58.200Z,8.70
2018-01-30T13:58:29.232Z,8.63
2018-01-30T14:01:00.566Z,7.15
2018-01-30T14:03:30.861Z,7.10
2018-01-30T14:06:01.739Z,7.32
2018-01-30T14:08:33.334Z,7.78
2018-01-30T14:11:03.570Z,6.60
2018-01-30T14:13:34.483Z,5.32
2018-01-30T14:16:05.360Z,11.98
2018-01-30T14:18:36.414Z,6.62
2018-01-30T14:21:07.994Z,8.02
2018-01-30T14:23:38.851Z,9.14
2018-01-30T14:26:09.828Z,9.40
2018-01-30T14:28:40.842Z,11.02
2018-01-30T14:31:11.768Z,5.82
2018-01-30T14:33:41.789Z,5.93
2018-01-30T14:36:12.702Z,8.60
2018-01-30T14:38:44.632Z,8.24
2018-01-30T14:41:16.266Z,10.26
2018-01-30T14:43:47.685Z,4.48
2018-01-30T14:46:18.395Z,7.60
2018-01-30T14:48:48.223Z,9.47
2018-01-30T14:51:21.311Z,8.24
2018-01-30T14:53:52.035Z,7.03
2018-01-30T14:56:21.820Z,8.07
2018-01-30T14:58:51.835Z,6.12
2018-01-30T15:01:22.525Z,5.57
2018-01-30T15:03:52.278Z,7.90
2018-01-30T15:06:24.744Z,8.36
2018-01-30T15:08:54.872Z,7.22
2018-01-30T15:11:26.532Z,13.25
2018-01-30T15:13:58.186Z,7.30
2018-01-30T15:16:28.471Z,9.68
2018-01-30T15:19:00.912Z,11.62
2018-01-30T15:21:31.230Z,6.73
2018-01-30T15:24:01.320Z,9.85
2018-01-30T15:26:34.074Z,11.52
2018-01-30T15:29:04.287Z,10.90
2018-01-30T15:31:34.619Z,7.10
2018-01-30T15:34:05.785Z,9.54
2018-01-30T15:36:35.935Z,9.33
2018-01-30T15:39:06.132Z,6.43
2018-01-30T15:41:37.851Z,7.92
2018-01-30T15:44:08.301Z,6.78
2018-01-30T15:46:39.161Z,7.20
2018-01-30T15:49:11.842Z,10.68
2018-01-30T15:51:43.214Z,8.27
2018-01-30T15:54:13.771Z,8.77
2018-01-30T15:56:43.884Z,6.05
2018-01-30T15:59:15.398Z,12.53
2018-01-30T16:01:46.895Z,8.70
2018-01-30T16:04:17.889Z,13.18
2018-01-30T16:06:48.275Z,16.12
2018-01-30T16:09:18.918Z,10.32
2018-01-30T16:11:49.258Z,9.90
2018-01-30T16:14:19.698Z,9.77
2018-01-30T16:16:50.111Z,9.07
2018-01-30T16:19:20.353Z,13.02
2018-01-30T16:21:54.624Z,9.84
2018-01-30T16:24:28.729Z,11.93
2018-01-30T16:26:58.796Z,6.95
2018-01-30T16:29:28.976Z,8.57
2018-01-30T16:31:59.799Z,9.35
2018-01-30T16:34:31.135Z,13.02
2018-01-30T16:37:02.131Z,11.20
2018-01-30T16:39:32.651Z,9.20
2018-01-30T16:42:02.880Z,9.00
2018-01-30T16:44:33.190Z,9.98
2018-01-30T16:47:03.403Z,14.72
2018-01-30T16:49:33.539Z,12.50
2018-01-30T16:52:03.775Z,11.10
2018-01-30T16:54:34.618Z,9.27
2018-01-30T16:57:05.545Z,11.93
2018-01-30T16:59:36.161Z,9.56
2018-01-30T17:02:07.279Z,14.80
2018-01-30T17:04:37.471Z,12.80
2018-01-30T17:07:07.556Z,9.48
2018-01-30T17:09:37.576Z,12.57
2018-01-30T17:12:08.975Z,72.10
2018-01-30T17:14:39.191Z,17.83
2018-01-30T17:17:10.570Z,8.14
2018-01-30T17:19:42.526Z,25.17
2018-01-30T17:22:12.384Z,11.77
2018-01-30T17:24:42.626Z,10.68
2018-01-30T17:27:13.831Z,14.77
2018-01-30T17:29:44.308Z,16.50
2018-01-30T17:32:19.934Z,21.00
2018-01-30T17:34:50.035Z,26.98
2018-01-30T17:37:21.051Z,12.12
2018-01-30T17:39:54.717Z,13.77
2018-01-30T17:42:24.837Z,15.18
2018-01-30T17:44:56.606Z,11.90
2018-01-30T17:47:27.438Z,15.98
2018-01-30T17:49:57.970Z,13.95
2018-01-30T17:52:28.473Z,10.52
2018-01-30T17:54:58.811Z,12.53
2018-01-30T17:57:30.501Z,14.63
2018-01-30T18:00:01.104Z,12.10
2018-01-30T18:02:31.795Z,13.23
2018-01-30T18:05:02.532Z,15.38
2018-01-30T18:07:34.729Z,14.10
2018-01-30T18:10:05.896Z,15.80
2018-01-30T18:12:36.609Z,13.23
2018-01-30T18:15:07.182Z,16.27
2018-01-30T18:17:37.631Z,16.67
2018-01-30T18:20:08.519Z,15.38
2018-01-30T18:22:39.229Z,11.20
2018-01-30T18:25:09.715Z,17.08
2018-01-30T18:27:40.207Z,13.32
2018-01-30T18:30:10.919Z,14.15
2018-01-30T18:32:41.566Z,14.50
2018-01-30T18:35:12.123Z,11.77
2018-01-30T18:37:43.177Z,12.07
2018-01-30T18:40:13.567Z,13.15
2018-01-30T18:42:46.327Z,12.93
2018-01-30T18:45:16.324Z,18.58
2018-01-30T18:47:47.628Z,14.02
2018-01-30T18:50:18.494Z,12.80
2018-01-30T18:52:48.970Z,10.77
2018-01-30T18:55:19.044Z,13.55
2018-01-30T18:57:49.731Z,12.98
2018-01-30T19:00:20.163Z,15.85
2018-01-30T19:02:50.677Z,14.03
2018-01-30T19:05:22.676Z,16.75
2018-01-30T19:07:53.107Z,9.75
2018-01-30T19:10:26.302Z,17.62
2018-01-30T19:12:57.161Z,16.40
2018-01-30T19:15:31.121Z,14.60
2018-01-30T19:18:04.251Z,12.55
2018-01-30T19:20:37.035Z,13.00
2018-01-30T19:23:07.700Z,21.08
2018-01-30T19:25:38.159Z,17.30
2018-01-30T19:28:08.756Z,19.08
2018-01-30T19:30:39.132Z,16.95
2018-01-30T19:33:10.702Z,21.48
2018-01-30T19:35:42.266Z,19.12
2018-01-30T19:38:12.686Z,18.12
2018-01-30T19:40:43.877Z,16.37
2018-01-30T19:43:14.383Z,14.23
2018-01-30T19:45:44.739Z,16.58
2018-01-30T19:48:15.351Z,15.98
2018-01-30T19:50:45.603Z,15.13
2018-01-30T19:53:15.994Z,15.97
2018-01-30T19:55:47.558Z,20.37
2018-01-30T19:58:18.462Z,20.35
2018-01-30T20:00:50.397Z,17.15
2018-01-30T20:03:20.979Z,11.73
2018-01-30T20:05:52.931Z,15.15
2018-01-30T20:08:23.043Z,21.63
2018-01-30T20:10:53.358Z,15.35
2018-01-30T20:13:24.581Z,16.55
2018-01-30T20:15:54.952Z,17.43
2018-01-30T20:18:25.364Z,15.55
2018-01-30T20:20:57.324Z,16.60
2018-01-30T20:23:27.985Z,18.95
2018-01-30T20:25:58.717Z,13.20
2018-01-30T20:28:29.224Z,21.25
2018-01-30T20:30:59.587Z,19.37
2018-01-30T20:33:30.122Z,18.55
2018-01-30T20:36:00.436Z,12.30
2018-01-30T20:38:30.829Z,13.20
2018-01-30T20:41:01.298Z,17.95
2018-01-30T20:43:32.420Z,18.33
2018-01-30T20:46:02.735Z,17.80
2018-01-30T20:48:33.139Z,12.37
2018-01-30T20:51:03.347Z,19.20
2018-01-30T20:53:33.623Z,14.32
2018-01-30T20:56:04.128Z,14.13
2018-01-30T20:58:35.967Z,12.57
2018-01-30T21:01:06.492Z,13.20
2018-01-30T21:03:36.872Z,19.40
2018-01-30T21:06:07.647Z,14.30
2018-01-30T21:08:38.222Z,16.05
2018-01-30T21:11:08.576Z,21.42
2018-01-30T21:13:38.636Z,16.00
2018-01-30T21:16:09.223Z,15.93
2018-01-30T21:18:39.436Z,17.33
2018-01-30T21:21:10.964Z,18.50
2018-01-30T21:23:41.219Z,16.62
2018-01-30T21:26:11.507Z,15.43
2018-01-30T21:28:41.717Z,16.38
2018-01-30T21:31:12.400Z,15.18
2018-01-30T21:33:42.640Z,16.80
2018-01-30T21:36:12.941Z,19.55
2018-01-30T21:38:43.342Z,25.27
2018-01-30T21:41:13.807Z,19.17
2018-01-30T21:43:44.929Z,18.23
2018-01-30T21:46:15.200Z,18.97
2018-01-30T21:48:45.360Z,17.02
2018-01-30T21:51:15.532Z,19.53
2018-01-30T21:53:46.191Z,21.12
2018-01-30T21:56:17.730Z,24.20
2018-01-30T21:58:48.517Z,24.60
2018-01-30T22:01:18.700Z,28.00
2018-01-30T22:03:49.002Z,22.58
2018-01-30T22:06:20.688Z,24.94
2018-01-30T22:08:50.357Z,22.77
2018-01-30T22:11:20.139Z,20.48
2018-01-30T22:13:50.631Z,29.70
2018-01-30T22:16:21.506Z,24.26
2018-01-30T22:18:52.286Z,21.55
2018-01-30T22:21:23.365Z,23.42
2018-01-30T22:23:54.091Z,25.20
2018-01-30T22:26:24.588Z,27.70
2018-01-30T22:28:55.163Z,30.62
2018-01-30T22:31:25.865Z,26.75
2018-01-30T22:33:57.059Z,30.02
2018-01-30T22:36:27.478Z,30.54
2018-01-30T22:38:58.066Z,27.52
2018-01-30T22:41:28.904Z,35.85
2018-01-30T22:43:59.846Z,37.75
2018-01-30T22:46:29.654Z,36.92
